sensor_id;sensor_type;location;lat;lon;timestamp;P1;durP1;ratioP1;P2;durP2;ratioP2
27127;SDS011;14660;49.008;8.390;2022-08-19T00:01:46;17.98;;;15.50;;
27127;SDS011;14660;49.008;8.390;2022-08-19T00:04:16;16.80;;;15.00;;
27127;SDS011;14660;49.008;8.390;2022-08-19T00:06:45;17.17;;;15.48;;
27127;SDS011;14660;49.008;8.390;2022-08-19T00:09:13;18.98;;;15.88;;
27127;SDS011;14660;49.008;8.390;2022-08-19T00:11:43;17.52;;;15.68;;
27127;SDS011;14660;49.008;8.390;2022-08-19T00:14:11;17.88;;;16.15;;
27127;SDS011;14660;49.008;8.390;2022-08-19T00:16:40;17.23;;;15.52;;
27127;SDS011;14660;49.008;8.390;2022-08-19T00:19:09;17.77;;;15.70;;
27127;SDS011;14660;49.008;8.390;2022-08-19T00:21:36;18.63;;;15.48;;
27127;SDS011;14660;49.008;8.390;2022-08-19T00:24:07;17.77;;;15.50;;
27127;SDS011;14660;49.008;8.390;2022-08-19T00:26:35;20.38;;;15.93;;
27127;SDS011;14660;49.008;8.390;2022-08-19T00:29:03;17.98;;;16.02;;
27127;SDS011;14660;49.008;8.390;2022-08-19T00:31:31;18.88;;;15.88;;
27127;SDS011;14660;49.008;8.390;2022-08-19T00:33:58;18.05;;;16.15;;
27127;SDS011;14660;49.008;8.390;2022-08-19T00:36:26;19.45;;;17.15;;
27127;SDS011;14660;49.008;8.390;2022-08-19T00:38:54;18.88;;;16.80;;
27127;SDS011;14660;49.008;8.390;2022-08-19T00:41:23;19.35;;;16.55;;
27127;SDS011;14660;49.008;8.390;2022-08-19T00:46:45;19.63;;;17.05;;
27127;SDS011;14660;49.008;8.390;2022-08-19T00:49:23;21.02;;;16.17;;
27127;SDS011;14660;49.008;8.390;2022-08-19T00:51:58;21.40;;;16.13;;
27127;SDS011;14660;49.008;8.390;2022-08-19T00:54:29;17.55;;;15.60;;
27127;SDS011;14660;49.008;8.390;2022-08-19T00:56:58;17.25;;;15.48;;
27127;SDS011;14660;49.008;8.390;2022-08-19T00:59:26;17.83;;;15.88;;
27127;SDS011;14660;49.008;8.390;2022-08-19T01:01:54;18.80;;;16.95;;
27127;SDS011;14660;49.008;8.390;2022-08-19T01:04:22;18.35;;;16.02;;
27127;SDS011;14660;49.008;8.390;2022-08-19T01:06:48;20.58;;;16.73;;
27127;SDS011;14660;49.008;8.390;2022-08-19T01:09:15;18.45;;;16.65;;
27127;SDS011;14660;49.008;8.390;2022-08-19T01:11:42;19.00;;;16.98;;
27127;SDS011;14660;49.008;8.390;2022-08-19T01:14:11;20.08;;;16.67;;
27127;SDS011;14660;49.008;8.390;2022-08-19T01:16:39;18.75;;;16.67;;
27127;SDS011;14660;49.008;8.390;2022-08-19T01:19:12;18.90;;;16.27;;
27127;SDS011;14660;49.008;8.390;2022-08-19T01:21:52;18.17;;;16.27;;
27127;SDS011;14660;49.008;8.390;2022-08-19T01:24:28;20.70;;;17.38;;
27127;SDS011;14660;49.008;8.390;2022-08-19T01:26:57;18.50;;;16.60;;
27127;SDS011;14660;49.008;8.390;2022-08-19T01:29:24;19.40;;;17.33;;
27127;SDS011;14660;49.008;8.390;2022-08-19T01:31:51;21.42;;;17.92;;
27127;SDS011;14660;49.008;8.390;2022-08-19T01:34:19;19.85;;;17.85;;
27127;SDS011;14660;49.008;8.390;2022-08-19T01:36:46;19.65;;;17.58;;
27127;SDS011;14660;49.008;8.390;2022-08-19T01:39:22;21.13;;;18.95;;
27127;SDS011;14660;49.008;8.390;2022-08-19T01:41:50;21.98;;;19.67;;
27127;SDS011;14660;49.008;8.390;2022-08-19T01:44:20;23.83;;;20.92;;
27127;SDS011;14660;49.008;8.390;2022-08-19T01:46:50;23.45;;;20.50;;
27127;SDS011;14660;49.008;8.390;2022-08-19T01:49:19;21.95;;;18.83;;
27127;SDS011;14660;49.008;8.390;2022-08-19T01:51:47;20.73;;;18.60;;
27127;SDS011;14660;49.008;8.390;2022-08-19T01:54:16;22.52;;;20.25;;
27127;SDS011;14660;49.008;8.390;2022-08-19T01:56:45;21.83;;;19.52;;
27127;SDS011;14660;49.008;8.390;2022-08-19T01:59:13;22.45;;;19.70;;
27127;SDS011;14660;49.008;8.390;2022-08-19T02:01:42;21.60;;;19.42;;
27127;SDS011;14660;49.008;8.390;2022-08-19T02:04:09;21.35;;;18.88;;
27127;SDS011;14660;49.008;8.390;2022-08-19T02:06:36;21.13;;;18.55;;
27127;SDS011;14660;49.008;8.390;2022-08-19T02:09:04;24.23;;;21.70;;
27127;SDS011;14660;49.008;8.390;2022-08-19T02:11:32;23.05;;;20.75;;
27127;SDS011;14660;49.008;8.390;2022-08-19T02:14:03;22.52;;;20.13;;
27127;SDS011;14660;49.008;8.390;2022-08-19T02:16:31;21.70;;;19.48;;
27127;SDS011;14660;49.008;8.390;2022-08-19T02:18:58;22.42;;;20.13;;
27127;SDS011;14660;49.008;8.390;2022-08-19T02:21:27;23.08;;;20.63;;
27127;SDS011;14660;49.008;8.390;2022-08-19T02:23:54;23.67;;;19.35;;
27127;SDS011;14660;49.008;8.390;2022-08-19T02:26:21;22.90;;;20.08;;
27127;SDS011;14660;49.008;8.390;2022-08-19T02:28:49;25.95;;;19.95;;
27127;SDS011;14660;49.008;8.390;2022-08-19T02:31:17;25.20;;;20.85;;
27127;SDS011;14660;49.008;8.390;2022-08-19T02:33:45;24.73;;;21.02;;
27127;SDS011;14660;49.008;8.390;2022-08-19T02:36:13;25.23;;;20.02;;
27127;SDS011;14660;49.008;8.390;2022-08-19T02:38:43;23.35;;;20.40;;
27127;SDS011;14660;49.008;8.390;2022-08-19T02:41:15;27.35;;;20.85;;
27127;SDS011;14660;49.008;8.390;2022-08-19T02:43:44;23.73;;;20.85;;
27127;SDS011;14660;49.008;8.390;2022-08-19T02:46:15;26.85;;;22.05;;
27127;SDS011;14660;49.008;8.390;2022-08-19T02:48:48;28.00;;;22.83;;
27127;SDS011;14660;49.008;8.390;2022-08-19T02:51:17;25.52;;;22.70;;
27127;SDS011;14660;49.008;8.390;2022-08-19T02:53:54;27.58;;;23.55;;
27127;SDS011;14660;49.008;8.390;2022-08-19T02:56:21;26.42;;;23.55;;
27127;SDS011;14660;49.008;8.390;2022-08-19T02:58:48;25.77;;;23.02;;
27127;SDS011;14660;49.008;8.390;2022-08-19T03:01:26;24.90;;;21.95;;
27127;SDS011;14660;49.008;8.390;2022-08-19T03:03:55;25.42;;;22.73;;
27127;SDS011;14660;49.008;8.390;2022-08-19T03:06:23;28.25;;;22.10;;
27127;SDS011;14660;49.008;8.390;2022-08-19T03:08:50;27.10;;;22.13;;
27127;SDS011;14660;49.008;8.390;2022-08-19T03:11:25;26.33;;;23.00;;
27127;SDS011;14660;49.008;8.390;2022-08-19T03:13:55;25.63;;;22.17;;
27127;SDS011;14660;49.008;8.390;2022-08-19T03:16:24;24.30;;;21.73;;
27127;SDS011;14660;49.008;8.390;2022-08-19T03:18:55;26.70;;;22.30;;
27127;SDS011;14660;49.008;8.390;2022-08-19T03:21:26;25.83;;;22.27;;
27127;SDS011;14660;49.008;8.390;2022-08-19T03:23:55;25.85;;;23.15;;
27127;SDS011;14660;49.008;8.390;2022-08-19T03:26:24;26.60;;;23.88;;
27127;SDS011;14660;49.008;8.390;2022-08-19T03:28:51;27.88;;;23.10;;
27127;SDS011;14660;49.008;8.390;2022-08-19T03:31:19;25.33;;;22.63;;
27127;SDS011;14660;49.008;8.390;2022-08-19T03:33:49;25.58;;;22.83;;
27127;SDS011;14660;49.008;8.390;2022-08-19T03:36:21;28.02;;;24.75;;
27127;SDS011;14660;49.008;8.390;2022-08-19T03:38:57;26.33;;;23.08;;
27127;SDS011;14660;49.008;8.390;2022-08-19T03:41:48;25.95;;;23.23;;
27127;SDS011;14660;49.008;8.390;2022-08-19T03:44:20;24.42;;;21.70;;
27127;SDS011;14660;49.008;8.390;2022-08-19T03:46:49;26.42;;;22.85;;
27127;SDS011;14660;49.008;8.390;2022-08-19T03:51:49;25.85;;;22.27;;
27127;SDS011;14660;49.008;8.390;2022-08-19T03:54:18;26.25;;;22.55;;
27127;SDS011;14660;49.008;8.390;2022-08-19T03:56:49;27.67;;;24.58;;
27127;SDS011;14660;49.008;8.390;2022-08-19T03:59:19;29.15;;;23.95;;
27127;SDS011;14660;49.008;8.390;2022-08-19T04:01:55;26.05;;;22.00;;
27127;SDS011;14660;49.008;8.390;2022-08-19T04:04:24;28.77;;;23.77;;
27127;SDS011;14660;49.008;8.390;2022-08-19T04:06:51;26.10;;;22.10;;
27127;SDS011;14660;49.008;8.390;2022-08-19T04:09:18;26.33;;;23.48;;
27127;SDS011;14660;49.008;8.390;2022-08-19T04:11:48;27.17;;;23.73;;
27127;SDS011;14660;49.008;8.390;2022-08-19T04:14:18;24.77;;;22.17;;
27127;SDS011;14660;49.008;8.390;2022-08-19T04:16:46;27.08;;;23.27;;
27127;SDS011;14660;49.008;8.390;2022-08-19T04:19:15;25.75;;;21.67;;
27127;SDS011;14660;49.008;8.390;2022-08-19T04:21:44;29.92;;;23.83;;
27127;SDS011;14660;49.008;8.390;2022-08-19T04:24:14;28.05;;;24.05;;
27127;SDS011;14660;49.008;8.390;2022-08-19T04:26:41;28.02;;;23.58;;
27127;SDS011;14660;49.008;8.390;2022-08-19T04:29:12;29.17;;;25.08;;
27127;SDS011;14660;49.008;8.390;2022-08-19T04:31:42;26.85;;;22.83;;
27127;SDS011;14660;49.008;8.390;2022-08-19T04:34:11;30.13;;;25.17;;
27127;SDS011;14660;49.008;8.390;2022-08-19T04:36:41;29.90;;;25.63;;
27127;SDS011;14660;49.008;8.390;2022-08-19T04:39:14;28.17;;;23.92;;
27127;SDS011;14660;49.008;8.390;2022-08-19T04:41:43;28.20;;;24.33;;
27127;SDS011;14660;49.008;8.390;2022-08-19T04:44:30;32.83;;;25.83;;
27127;SDS011;14660;49.008;8.390;2022-08-19T04:46:58;26.88;;;23.23;;
27127;SDS011;14660;49.008;8.390;2022-08-19T04:49:26;28.35;;;23.98;;
27127;SDS011;14660;49.008;8.390;2022-08-19T04:51:53;30.80;;;26.13;;
27127;SDS011;14660;49.008;8.390;2022-08-19T04:54:23;27.70;;;24.13;;
27127;SDS011;14660;49.008;8.390;2022-08-19T04:56:53;27.73;;;24.25;;
27127;SDS011;14660;49.008;8.390;2022-08-19T04:59:21;28.33;;;22.73;;
27127;SDS011;14660;49.008;8.390;2022-08-19T05:01:49;29.38;;;23.70;;
27127;SDS011;14660;49.008;8.390;2022-08-19T05:04:19;26.15;;;23.25;;
27127;SDS011;14660;49.008;8.390;2022-08-19T05:06:47;31.02;;;24.45;;
27127;SDS011;14660;49.008;8.390;2022-08-19T05:09:16;27.60;;;23.20;;
27127;SDS011;14660;49.008;8.390;2022-08-19T05:11:43;26.33;;;23.42;;
27127;SDS011;14660;49.008;8.390;2022-08-19T05:14:11;27.35;;;23.83;;
27127;SDS011;14660;49.008;8.390;2022-08-19T05:16:39;26.35;;;23.20;;
27127;SDS011;14660;49.008;8.390;2022-08-19T05:19:07;27.38;;;23.77;;
27127;SDS011;14660;49.008;8.390;2022-08-19T05:21:53;27.35;;;24.40;;
27127;SDS011;14660;49.008;8.390;2022-08-19T05:24:39;27.20;;;23.08;;
27127;SDS011;14660;49.008;8.390;2022-08-19T05:27:05;24.98;;;22.20;;
27127;SDS011;14660;49.008;8.390;2022-08-19T05:29:34;24.73;;;22.08;;
27127;SDS011;14660;49.008;8.390;2022-08-19T05:32:02;29.52;;;23.48;;
27127;SDS011;14660;49.008;8.390;2022-08-19T05:34:30;28.02;;;23.05;;
27127;SDS011;14660;49.008;8.390;2022-08-19T05:36:59;26.80;;;23.48;;
27127;SDS011;14660;49.008;8.390;2022-08-19T05:39:29;27.00;;;23.92;;
27127;SDS011;14660;49.008;8.390;2022-08-19T05:42:02;29.55;;;23.23;;
27127;SDS011;14660;49.008;8.390;2022-08-19T05:44:34;28.55;;;23.45;;
27127;SDS011;14660;49.008;8.390;2022-08-19T05:47:04;25.17;;;22.42;;
27127;SDS011;14660;49.008;8.390;2022-08-19T05:49:34;25.80;;;22.95;;
27127;SDS011;14660;49.008;8.390;2022-08-19T05:52:04;26.20;;;21.33;;
27127;SDS011;14660;49.008;8.390;2022-08-19T05:54:45;25.98;;;22.70;;
27127;SDS011;14660;49.008;8.390;2022-08-19T05:57:14;27.92;;;22.83;;
27127;SDS011;14660;49.008;8.390;2022-08-19T05:59:42;25.02;;;21.92;;
27127;SDS011;14660;49.008;8.390;2022-08-19T06:02:12;25.02;;;22.38;;
27127;SDS011;14660;49.008;8.390;2022-08-19T06:04:39;26.13;;;21.50;;
27127;SDS011;14660;49.008;8.390;2022-08-19T06:07:09;25.83;;;22.67;;
27127;SDS011;14660;49.008;8.390;2022-08-19T06:09:36;25.52;;;21.52;;
27127;SDS011;14660;49.008;8.390;2022-08-19T06:12:03;25.30;;;21.63;;
27127;SDS011;14660;49.008;8.390;2022-08-19T06:14:31;27.27;;;21.98;;
27127;SDS011;14660;49.008;8.390;2022-08-19T06:17:01;26.67;;;21.45;;
27127;SDS011;14660;49.008;8.390;2022-08-19T06:19:30;32.72;;;22.73;;
27127;SDS011;14660;49.008;8.390;2022-08-19T06:22:00;32.33;;;22.45;;
27127;SDS011;14660;49.008;8.390;2022-08-19T06:24:27;23.30;;;20.80;;
27127;SDS011;14660;49.008;8.390;2022-08-19T06:26:55;23.92;;;20.98;;
27127;SDS011;14660;49.008;8.390;2022-08-19T06:29:24;28.25;;;21.98;;
27127;SDS011;14660;49.008;8.390;2022-08-19T06:31:55;23.77;;;20.98;;
27127;SDS011;14660;49.008;8.390;2022-08-19T06:34:24;24.48;;;21.92;;
27127;SDS011;14660;49.008;8.390;2022-08-19T06:36:54;23.35;;;20.77;;
27127;SDS011;14660;49.008;8.390;2022-08-19T06:39:23;23.40;;;19.70;;
27127;SDS011;14660;49.008;8.390;2022-08-19T06:41:51;25.48;;;21.77;;
27127;SDS011;14660;49.008;8.390;2022-08-19T06:44:23;24.52;;;20.58;;
27127;SDS011;14660;49.008;8.390;2022-08-19T06:46:52;24.05;;;19.67;;
27127;SDS011;14660;49.008;8.390;2022-08-19T06:49:20;23.65;;;21.13;;
27127;SDS011;14660;49.008;8.390;2022-08-19T06:51:49;23.80;;;20.50;;
27127;SDS011;14660;49.008;8.390;2022-08-19T06:54:17;24.52;;;22.00;;
27127;SDS011;14660;49.008;8.390;2022-08-19T06:56:44;24.75;;;20.13;;
27127;SDS011;14660;49.008;8.390;2022-08-19T06:59:13;26.20;;;20.67;;
27127;SDS011;14660;49.008;8.390;2022-08-19T07:01:43;22.60;;;20.20;;
27127;SDS011;14660;49.008;8.390;2022-08-19T07:04:18;22.15;;;19.75;;
27127;SDS011;14660;49.008;8.390;2022-08-19T07:06:47;26.45;;;20.08;;
27127;SDS011;14660;49.008;8.390;2022-08-19T07:09:16;22.92;;;18.95;;
27127;SDS011;14660;49.008;8.390;2022-08-19T07:11:48;22.27;;;19.77;;
27127;SDS011;14660;49.008;8.390;2022-08-19T07:14:17;20.70;;;18.50;;
27127;SDS011;14660;49.008;8.390;2022-08-19T07:16:46;21.25;;;18.17;;
27127;SDS011;14660;49.008;8.390;2022-08-19T07:19:15;19.58;;;17.50;;
27127;SDS011;14660;49.008;8.390;2022-08-19T07:21:44;20.60;;;18.50;;
27127;SDS011;14660;49.008;8.390;2022-08-19T07:24:13;21.15;;;18.23;;
27127;SDS011;14660;49.008;8.390;2022-08-19T07:26:42;20.80;;;18.42;;
27127;SDS011;14660;49.008;8.390;2022-08-19T07:29:10;22.73;;;19.42;;
27127;SDS011;14660;49.008;8.390;2022-08-19T07:31:37;19.30;;;16.98;;
27127;SDS011;14660;49.008;8.390;2022-08-19T07:34:06;19.33;;;17.30;;
27127;SDS011;14660;49.008;8.390;2022-08-19T07:36:35;19.23;;;17.20;;
27127;SDS011;14660;49.008;8.390;2022-08-19T07:39:08;19.90;;;17.05;;
27127;SDS011;14660;49.008;8.390;2022-08-19T07:41:37;19.35;;;17.20;;
27127;SDS011;14660;49.008;8.390;2022-08-19T07:44:05;19.10;;;16.33;;
27127;SDS011;14660;49.008;8.390;2022-08-19T07:46:35;20.05;;;17.67;;
27127;SDS011;14660;49.008;8.390;2022-08-19T07:49:04;19.73;;;17.73;;
27127;SDS011;14660;49.008;8.390;2022-08-19T07:51:34;19.35;;;17.05;;
27127;SDS011;14660;49.008;8.390;2022-08-19T07:54:02;19.83;;;16.52;;
27127;SDS011;14660;49.008;8.390;2022-08-19T07:56:29;19.02;;;17.00;;
27127;SDS011;14660;49.008;8.390;2022-08-19T07:58:56;18.75;;;16.55;;
27127;SDS011;14660;49.008;8.390;2022-08-19T08:01:24;16.95;;;15.20;;
27127;SDS011;14660;49.008;8.390;2022-08-19T08:03:54;18.85;;;16.20;;
27127;SDS011;14660;49.008;8.390;2022-08-19T08:06:41;16.92;;;15.13;;
27127;SDS011;14660;49.008;8.390;2022-08-19T08:09:28;16.88;;;15.07;;
27127;SDS011;14660;49.008;8.390;2022-08-19T08:12:03;18.05;;;13.98;;
27127;SDS011;14660;49.008;8.390;2022-08-19T08:14:46;17.15;;;14.68;;
27127;SDS011;14660;49.008;8.390;2022-08-19T08:17:15;23.02;;;15.60;;
27127;SDS011;14660;49.008;8.390;2022-08-19T08:19:44;18.88;;;14.60;;
27127;SDS011;14660;49.008;8.390;2022-08-19T08:22:14;15.55;;;13.30;;
27127;SDS011;14660;49.008;8.390;2022-08-19T08:25:04;14.90;;;13.50;;
27127;SDS011;14660;49.008;8.390;2022-08-19T08:27:35;15.18;;;13.65;;
27127;SDS011;14660;49.008;8.390;2022-08-19T08:30:12;16.30;;;12.40;;
27127;SDS011;14660;49.008;8.390;2022-08-19T08:32:42;14.25;;;12.75;;
27127;SDS011;14660;49.008;8.390;2022-08-19T08:35:11;15.48;;;11.52;;
27127;SDS011;14660;49.008;8.390;2022-08-19T08:37:40;12.80;;;11.23;;
27127;SDS011;14660;49.008;8.390;2022-08-19T08:40:53;12.80;;;11.55;;
27127;SDS011;14660;49.008;8.390;2022-08-19T08:46:10;14.20;;;12.18;;
27127;SDS011;14660;49.008;8.390;2022-08-19T08:51:40;12.52;;;11.30;;
27127;SDS011;14660;49.008;8.390;2022-08-19T08:54:14;16.00;;;11.23;;
27127;SDS011;14660;49.008;8.390;2022-08-19T08:56:45;15.40;;;11.27;;
27127;SDS011;14660;49.008;8.390;2022-08-19T09:02:01;15.95;;;11.27;;
27127;SDS011;14660;49.008;8.390;2022-08-19T09:04:28;13.93;;;11.27;;
27127;SDS011;14660;49.008;8.390;2022-08-19T09:07:21;13.65;;;11.27;;
27127;SDS011;14660;49.008;8.390;2022-08-19T09:09:52;14.38;;;12.13;;
27127;SDS011;14660;49.008;8.390;2022-08-19T09:12:43;13.60;;;11.05;;
27127;SDS011;14660;49.008;8.390;2022-08-19T09:15:34;12.95;;;9.30;;
27127;SDS011;14660;49.008;8.390;2022-08-19T09:18:06;11.23;;;9.38;;
27127;SDS011;14660;49.008;8.390;2022-08-19T09:20:35;13.38;;;10.40;;
27127;SDS011;14660;49.008;8.390;2022-08-19T09:23:02;11.25;;;10.05;;
27127;SDS011;14660;49.008;8.390;2022-08-19T09:25:29;11.88;;;9.43;;
27127;SDS011;14660;49.008;8.390;2022-08-19T09:27:58;13.52;;;9.57;;
27127;SDS011;14660;49.008;8.390;2022-08-19T09:30:29;9.27;;;8.00;;
27127;SDS011;14660;49.008;8.390;2022-08-19T09:32:58;11.00;;;8.48;;
27127;SDS011;14660;49.008;8.390;2022-08-19T09:35:26;11.07;;;8.88;;
27127;SDS011;14660;49.008;8.390;2022-08-19T09:37:56;9.75;;;8.32;;
27127;SDS011;14660;49.008;8.390;2022-08-19T09:40:23;12.13;;;10.15;;
27127;SDS011;14660;49.008;8.390;2022-08-19T09:42:51;10.95;;;9.80;;
27127;SDS011;14660;49.008;8.390;2022-08-19T09:45:19;10.20;;;8.35;;
27127;SDS011;14660;49.008;8.390;2022-08-19T09:47:48;9.52;;;8.57;;
27127;SDS011;14660;49.008;8.390;2022-08-19T09:50:18;9.68;;;8.60;;
27127;SDS011;14660;49.008;8.390;2022-08-19T09:52:45;9.52;;;8.60;;
27127;SDS011;14660;49.008;8.390;2022-08-19T09:55:13;10.10;;;9.13;;
27127;SDS011;14660;49.008;8.390;2022-08-19T09:57:42;9.40;;;7.18;;
27127;SDS011;14660;49.008;8.390;2022-08-19T10:00:09;12.43;;;8.98;;
27127;SDS011;14660;49.008;8.390;2022-08-19T10:02:36;8.68;;;7.78;;
27127;SDS011;14660;49.008;8.390;2022-08-19T10:05:02;10.38;;;9.32;;
27127;SDS011;14660;49.008;8.390;2022-08-19T10:08:03;9.75;;;8.32;;
27127;SDS011;14660;49.008;8.390;2022-08-19T10:10:34;8.95;;;8.05;;
27127;SDS011;14660;49.008;8.390;2022-08-19T10:13:02;10.90;;;7.07;;
27127;SDS011;14660;49.008;8.390;2022-08-19T10:15:30;9.15;;;8.20;;
27127;SDS011;14660;49.008;8.390;2022-08-19T10:18:01;10.77;;;8.70;;
27127;SDS011;14660;49.008;8.390;2022-08-19T10:20:28;9.73;;;8.73;;
27127;SDS011;14660;49.008;8.390;2022-08-19T10:22:56;12.57;;;8.57;;
27127;SDS011;14660;49.008;8.390;2022-08-19T10:25:25;11.73;;;9.18;;
27127;SDS011;14660;49.008;8.390;2022-08-19T10:27:53;9.23;;;8.10;;
27127;SDS011;14660;49.008;8.390;2022-08-19T10:30:20;7.93;;;7.03;;
27127;SDS011;14660;49.008;8.390;2022-08-19T10:32:47;8.50;;;7.30;;
27127;SDS011;14660;49.008;8.390;2022-08-19T10:35:15;9.48;;;7.75;;
27127;SDS011;14660;49.008;8.390;2022-08-19T10:37:43;8.82;;;8.13;;
27127;SDS011;14660;49.008;8.390;2022-08-19T10:40:09;8.98;;;8.07;;
27127;SDS011;14660;49.008;8.390;2022-08-19T10:42:37;8.93;;;8.05;;
27127;SDS011;14660;49.008;8.390;2022-08-19T10:45:05;8.68;;;7.80;;
27127;SDS011;14660;49.008;8.390;2022-08-19T10:47:34;9.05;;;7.75;;
27127;SDS011;14660;49.008;8.390;2022-08-19T10:50:02;10.27;;;7.55;;
27127;SDS011;14660;49.008;8.390;2022-08-19T10:52:49;8.65;;;7.68;;
27127;SDS011;14660;49.008;8.390;2022-08-19T10:55:19;10.75;;;9.65;;
27127;SDS011;14660;49.008;8.390;2022-08-19T10:58:14;9.48;;;8.45;;
27127;SDS011;14660;49.008;8.390;2022-08-19T11:00:54;10.63;;;9.63;;
27127;SDS011;14660;49.008;8.390;2022-08-19T11:03:23;11.98;;;9.57;;
27127;SDS011;14660;49.008;8.390;2022-08-19T11:05:58;12.35;;;8.27;;
27127;SDS011;14660;49.008;8.390;2022-08-19T11:08:34;11.43;;;10.30;;
27127;SDS011;14660;49.008;8.390;2022-08-19T11:11:04;9.30;;;8.45;;
27127;SDS011;14660;49.008;8.390;2022-08-19T11:13:32;9.93;;;9.02;;
27127;SDS011;14660;49.008;8.390;2022-08-19T11:18:51;9.18;;;8.27;;
27127;SDS011;14660;49.008;8.390;2022-08-19T11:24:10;10.88;;;8.30;;
27127;SDS011;14660;49.008;8.390;2022-08-19T11:26:46;9.45;;;8.52;;
27127;SDS011;14660;49.008;8.390;2022-08-19T11:29:15;11.25;;;8.55;;
27127;SDS011;14660;49.008;8.390;2022-08-19T11:31:46;10.15;;;8.85;;
27127;SDS011;14660;49.008;8.390;2022-08-19T11:34:21;9.63;;;8.57;;
27127;SDS011;14660;49.008;8.390;2022-08-19T11:36:50;8.55;;;7.85;;
27127;SDS011;14660;49.008;8.390;2022-08-19T11:39:24;9.50;;;8.55;;
27127;SDS011;14660;49.008;8.390;2022-08-19T11:41:57;9.50;;;8.57;;
27127;SDS011;14660;49.008;8.390;2022-08-19T11:44:23;10.52;;;8.25;;
27127;SDS011;14660;49.008;8.390;2022-08-19T11:46:50;9.93;;;7.80;;
27127;SDS011;14660;49.008;8.390;2022-08-19T11:49:18;9.30;;;8.50;;
27127;SDS011;14660;49.008;8.390;2022-08-19T11:51:46;9.98;;;8.60;;
27127;SDS011;14660;49.008;8.390;2022-08-19T11:54:15;11.13;;;8.15;;
27127;SDS011;14660;49.008;8.390;2022-08-19T11:56:43;9.25;;;8.20;;
27127;SDS011;14660;49.008;8.390;2022-08-19T11:59:11;8.68;;;7.85;;
27127;SDS011;14660;49.008;8.390;2022-08-19T12:01:38;8.55;;;7.75;;
27127;SDS011;14660;49.008;8.390;2022-08-19T12:04:08;9.38;;;8.55;;
27127;SDS011;14660;49.008;8.390;2022-08-19T12:06:37;8.50;;;7.75;;
27127;SDS011;14660;49.008;8.390;2022-08-19T12:09:05;9.05;;;8.18;;
27127;SDS011;14660;49.008;8.390;2022-08-19T12:11:36;8.68;;;7.90;;
27127;SDS011;14660;49.008;8.390;2022-08-19T12:14:05;8.50;;;7.70;;
27127;SDS011;14660;49.008;8.390;2022-08-19T12:16:36;9.38;;;8.27;;
27127;SDS011;14660;49.008;8.390;2022-08-19T12:19:03;8.27;;;7.57;;
27127;SDS011;14660;49.008;8.390;2022-08-19T12:21:33;9.23;;;8.40;;
27127;SDS011;14660;49.008;8.390;2022-08-19T12:24:02;9.18;;;8.35;;
27127;SDS011;14660;49.008;8.390;2022-08-19T12:26:38;8.82;;;8.02;;
27127;SDS011;14660;49.008;8.390;2022-08-19T12:29:05;9.18;;;8.43;;
27127;SDS011;14660;49.008;8.390;2022-08-19T12:31:34;9.05;;;8.23;;
27127;SDS011;14660;49.008;8.390;2022-08-19T12:34:01;9.77;;;8.90;;
27127;SDS011;14660;49.008;8.390;2022-08-19T12:36:28;9.02;;;8.32;;
27127;SDS011;14660;49.008;8.390;2022-08-19T12:38:54;8.68;;;7.90;;
27127;SDS011;14660;49.008;8.390;2022-08-19T12:41:23;9.10;;;8.23;;
27127;SDS011;14660;49.008;8.390;2022-08-19T12:43:52;9.05;;;8.27;;
27127;SDS011;14660;49.008;8.390;2022-08-19T12:46:19;9.30;;;8.50;;
27127;SDS011;14660;49.008;8.390;2022-08-19T12:48:47;8.98;;;8.18;;
27127;SDS011;14660;49.008;8.390;2022-08-19T12:51:15;8.50;;;7.75;;
27127;SDS011;14660;49.008;8.390;2022-08-19T12:53:44;8.60;;;7.85;;
27127;SDS011;14660;49.008;8.390;2022-08-19T12:56:11;8.55;;;7.75;;
27127;SDS011;14660;49.008;8.390;2022-08-19T12:58:41;8.38;;;7.68;;
27127;SDS011;14660;49.008;8.390;2022-08-19T13:01:12;8.20;;;7.50;;
27127;SDS011;14660;49.008;8.390;2022-08-19T13:03:41;7.10;;;6.40;;
27127;SDS011;14660;49.008;8.390;2022-08-19T13:06:10;7.95;;;7.15;;
27127;SDS011;14660;49.008;8.390;2022-08-19T13:08:36;7.85;;;7.15;;
27127;SDS011;14660;49.008;8.390;2022-08-19T13:11:09;8.32;;;7.63;;
27127;SDS011;14660;49.008;8.390;2022-08-19T13:13:46;8.13;;;7.32;;
27127;SDS011;14660;49.008;8.390;2022-08-19T13:16:14;7.47;;;6.50;;
27127;SDS011;14660;49.008;8.390;2022-08-19T13:18:42;7.50;;;6.78;;
27127;SDS011;14660;49.008;8.390;2022-08-19T13:21:11;7.18;;;6.57;;
27127;SDS011;14660;49.008;8.390;2022-08-19T13:23:39;6.60;;;5.95;;
27127;SDS011;14660;49.008;8.390;2022-08-19T13:26:07;5.47;;;4.72;;
27127;SDS011;14660;49.008;8.390;2022-08-19T13:28:36;4.90;;;4.53;;
27127;SDS011;14660;49.008;8.390;2022-08-19T13:31:22;6.43;;;4.55;;
27127;SDS011;14660;49.008;8.390;2022-08-19T13:34:09;4.75;;;4.35;;
27127;SDS011;14660;49.008;8.390;2022-08-19T13:36:37;5.30;;;4.78;;
27127;SDS011;14660;49.008;8.390;2022-08-19T13:39:05;4.30;;;4.00;;
27127;SDS011;14660;49.008;8.390;2022-08-19T13:41:33;4.28;;;3.88;;
27127;SDS011;14660;49.008;8.390;2022-08-19T13:44:00;4.53;;;4.13;;
27127;SDS011;14660;49.008;8.390;2022-08-19T13:46:27;5.38;;;3.83;;
27127;SDS011;14660;49.008;8.390;2022-08-19T13:48:55;6.53;;;4.00;;
27127;SDS011;14660;49.008;8.390;2022-08-19T13:51:23;4.47;;;4.10;;
27127;SDS011;14660;49.008;8.390;2022-08-19T13:53:50;4.32;;;3.90;;
27127;SDS011;14660;49.008;8.390;2022-08-19T13:56:17;4.57;;;4.10;;
27127;SDS011;14660;49.008;8.390;2022-08-19T13:58:45;5.03;;;3.75;;
27127;SDS011;14660;49.008;8.390;2022-08-19T14:01:17;3.65;;;3.35;;
27127;SDS011;14660;49.008;8.390;2022-08-19T14:03:45;4.55;;;4.15;;
27127;SDS011;14660;49.008;8.390;2022-08-19T14:06:12;4.70;;;4.30;;
27127;SDS011;14660;49.008;8.390;2022-08-19T14:08:39;4.75;;;4.35;;
27127;SDS011;14660;49.008;8.390;2022-08-19T14:11:08;4.47;;;4.07;;
27127;SDS011;14660;49.008;8.390;2022-08-19T14:13:35;5.00;;;4.07;;
27127;SDS011;14660;49.008;8.390;2022-08-19T14:16:06;8.07;;;4.72;;
27127;SDS011;14660;49.008;8.390;2022-08-19T14:18:37;5.20;;;4.55;;
27127;SDS011;14660;49.008;8.390;2022-08-19T14:21:06;5.72;;;5.13;;
27127;SDS011;14660;49.008;8.390;2022-08-19T14:23:34;5.07;;;4.45;;
27127;SDS011;14660;49.008;8.390;2022-08-19T14:26:10;5.35;;;4.88;;
27127;SDS011;14660;49.008;8.390;2022-08-19T14:28:39;5.22;;;4.72;;
27127;SDS011;14660;49.008;8.390;2022-08-19T14:31:09;4.72;;;4.40;;
27127;SDS011;14660;49.008;8.390;2022-08-19T14:33:37;5.32;;;4.93;;
27127;SDS011;14660;49.008;8.390;2022-08-19T14:36:04;5.60;;;5.15;;
27127;SDS011;14660;49.008;8.390;2022-08-19T14:38:32;5.22;;;4.60;;
27127;SDS011;14660;49.008;8.390;2022-08-19T14:43:46;5.30;;;4.80;;
27127;SDS011;14660;49.008;8.390;2022-08-19T14:46:16;5.05;;;4.65;;
27127;SDS011;14660;49.008;8.390;2022-08-19T14:51:15;5.15;;;4.65;;
27127;SDS011;14660;49.008;8.390;2022-08-19T14:53:43;6.93;;;4.22;;
27127;SDS011;14660;49.008;8.390;2022-08-19T14:56:11;6.03;;;4.38;;
27127;SDS011;14660;49.008;8.390;2022-08-19T14:58:39;4.80;;;4.40;;
27127;SDS011;14660;49.008;8.390;2022-08-19T15:01:07;5.20;;;4.80;;
27127;SDS011;14660;49.008;8.390;2022-08-19T15:03:35;5.25;;;4.85;;
27127;SDS011;14660;49.008;8.390;2022-08-19T15:06:03;6.00;;;5.40;;
27127;SDS011;14660;49.008;8.390;2022-08-19T15:08:31;5.85;;;4.65;;
27127;SDS011;14660;49.008;8.390;2022-08-19T15:10:59;5.20;;;4.70;;
27127;SDS011;14660;49.008;8.390;2022-08-19T15:13:26;5.45;;;4.95;;